sensor_id;sensor_type;location;lat;lon;timestamp;P1;durP1;ratioP1;P2;durP2;ratioP2
19339;SDS011;9804;52.350;6.684;2022-12-10T00:01:48;52.77;;;22.40;;
19339;SDS011;9804;52.350;6.684;2022-12-10T00:04:14;53.53;;;21.00;;
19339;SDS011;9804;52.350;6.684;2022-12-10T00:06:40;48.47;;;21.10;;
19339;SDS011;9804;52.350;6.684;2022-12-10T00:09:07;49.97;;;21.40;;
19339;SDS011;9804;52.350;6.684;2022-12-10T00:11:36;51.83;;;22.20;;
19339;SDS011;9804;52.350;6.684;2022-12-10T00:14:02;51.50;;;20.60;;
19339;SDS011;9804;52.350;6.684;2022-12-10T00:16:27;52.07;;;21.53;;
19339;SDS011;9804;52.350;6.684;2022-12-10T00:18:55;49.07;;;20.37;;
19339;SDS011;9804;52.350;6.684;2022-12-10T00:21:22;51.53;;;21.60;;
19339;SDS011;9804;52.350;6.684;2022-12-10T00:23:49;54.03;;;22.33;;
19339;SDS011;9804;52.350;6.684;2022-12-10T00:26:16;54.63;;;22.10;;
19339;SDS011;9804;52.350;6.684;2022-12-10T00:28:43;58.60;;;22.47;;
19339;SDS011;9804;52.350;6.684;2022-12-10T00:31:31;65.33;;;22.90;;
19339;SDS011;9804;52.350;6.684;2022-12-10T00:33:58;62.90;;;24.23;;
19339;SDS011;9804;52.350;6.684;2022-12-10T00:36:29;55.77;;;21.17;;
19339;SDS011;9804;52.350;6.684;2022-12-10T00:38:56;60.07;;;24.33;;
19339;SDS011;9804;52.350;6.684;2022-12-10T00:41:22;55.37;;;22.00;;
19339;SDS011;9804;52.350;6.684;2022-12-10T00:43:47;59.07;;;22.27;;
19339;SDS011;9804;52.350;6.684;2022-12-10T00:46:13;57.93;;;23.60;;
19339;SDS011;9804;52.350;6.684;2022-12-10T00:48:40;68.47;;;23.80;;
19339;SDS011;9804;52.350;6.684;2022-12-10T00:51:08;62.73;;;23.77;;
19339;SDS011;9804;52.350;6.684;2022-12-10T00:53:36;65.17;;;22.97;;
19339;SDS011;9804;52.350;6.684;2022-12-10T00:56:03;62.97;;;22.63;;
19339;SDS011;9804;52.350;6.684;2022-12-10T00:58:29;59.03;;;22.97;;
19339;SDS011;9804;52.350;6.684;2022-12-10T01:01:06;58.70;;;21.93;;
19339;SDS011;9804;52.350;6.684;2022-12-10T01:03:39;50.27;;;22.60;;
19339;SDS011;9804;52.350;6.684;2022-12-10T01:06:13;54.73;;;21.07;;
19339;SDS011;9804;52.350;6.684;2022-12-10T01:08:43;60.17;;;22.60;;
19339;SDS011;9804;52.350;6.684;2022-12-10T01:11:10;57.37;;;21.63;;
19339;SDS011;9804;52.350;6.684;2022-12-10T01:13:37;52.67;;;21.53;;
19339;SDS011;9804;52.350;6.684;2022-12-10T01:16:03;52.20;;;19.33;;
19339;SDS011;9804;52.350;6.684;2022-12-10T01:18:30;52.13;;;21.30;;
19339;SDS011;9804;52.350;6.684;2022-12-10T01:21:00;47.77;;;18.97;;
19339;SDS011;9804;52.350;6.684;2022-12-10T01:23:26;50.20;;;20.67;;
19339;SDS011;9804;52.350;6.684;2022-12-10T01:25:52;61.17;;;21.70;;
19339;SDS011;9804;52.350;6.684;2022-12-10T01:28:17;54.17;;;21.10;;
19339;SDS011;9804;52.350;6.684;2022-12-10T01:30:43;52.73;;;21.20;;
19339;SDS011;9804;52.350;6.684;2022-12-10T01:33:08;52.10;;;20.23;;
19339;SDS011;9804;52.350;6.684;2022-12-10T01:35:35;53.37;;;19.93;;
19339;SDS011;9804;52.350;6.684;2022-12-10T01:38:02;55.90;;;22.03;;
19339;SDS011;9804;52.350;6.684;2022-12-10T01:40:27;55.43;;;21.53;;
19339;SDS011;9804;52.350;6.684;2022-12-10T01:42:53;49.93;;;20.10;;
19339;SDS011;9804;52.350;6.684;2022-12-10T01:45:18;52.77;;;20.77;;
19339;SDS011;9804;52.350;6.684;2022-12-10T01:47:44;55.53;;;21.40;;
19339;SDS011;9804;52.350;6.684;2022-12-10T01:50:10;59.83;;;23.13;;
19339;SDS011;9804;52.350;6.684;2022-12-10T01:52:35;56.90;;;22.40;;
19339;SDS011;9804;52.350;6.684;2022-12-10T01:55:01;55.17;;;21.40;;
19339;SDS011;9804;52.350;6.684;2022-12-10T01:57:31;57.53;;;22.27;;
19339;SDS011;9804;52.350;6.684;2022-12-10T01:59:57;56.20;;;21.57;;
19339;SDS011;9804;52.350;6.684;2022-12-10T02:02:36;62.37;;;22.27;;
19339;SDS011;9804;52.350;6.684;2022-12-10T02:05:13;54.97;;;22.17;;
19339;SDS011;9804;52.350;6.684;2022-12-10T02:15:51;62.43;;;23.47;;
19339;SDS011;9804;52.350;6.684;2022-12-10T02:18:24;63.43;;;23.37;;
19339;SDS011;9804;52.350;6.684;2022-12-10T02:20:57;64.70;;;23.10;;
19339;SDS011;9804;52.350;6.684;2022-12-10T02:23:28;66.27;;;24.93;;
19339;SDS011;9804;52.350;6.684;2022-12-10T02:26:25;64.37;;;22.80;;
19339;SDS011;9804;52.350;6.684;2022-12-10T02:29:12;65.70;;;23.43;;
19339;SDS011;9804;52.350;6.684;2022-12-10T02:31:44;61.70;;;22.80;;
19339;SDS011;9804;52.350;6.684;2022-12-10T02:34:14;68.17;;;25.83;;
19339;SDS011;9804;52.350;6.684;2022-12-10T02:36:42;76.90;;;26.43;;
19339;SDS011;9804;52.350;6.684;2022-12-10T02:39:11;71.63;;;26.13;;
19339;SDS011;9804;52.350;6.684;2022-12-10T02:41:41;74.30;;;26.33;;
19339;SDS011;9804;52.350;6.684;2022-12-10T02:44:12;72.80;;;27.57;;
19339;SDS011;9804;52.350;6.684;2022-12-10T02:46:40;73.93;;;27.60;;
19339;SDS011;9804;52.350;6.684;2022-12-10T02:49:09;70.30;;;27.20;;
19339;SDS011;9804;52.350;6.684;2022-12-10T02:51:38;79.23;;;29.33;;
19339;SDS011;9804;52.350;6.684;2022-12-10T02:54:05;78.90;;;28.47;;
19339;SDS011;9804;52.350;6.684;2022-12-10T02:56:35;74.93;;;29.30;;
19339;SDS011;9804;52.350;6.684;2022-12-10T03:01:56;82.07;;;28.93;;
19339;SDS011;9804;52.350;6.684;2022-12-10T03:04:28;87.73;;;30.20;;
19339;SDS011;9804;52.350;6.684;2022-12-10T03:07:02;83.23;;;30.73;;
19339;SDS011;9804;52.350;6.684;2022-12-10T03:09:45;79.70;;;29.93;;
19339;SDS011;9804;52.350;6.684;2022-12-10T03:12:18;74.50;;;27.20;;
19339;SDS011;9804;52.350;6.684;2022-12-10T03:14:49;84.80;;;29.80;;
19339;SDS011;9804;52.350;6.684;2022-12-10T03:17:15;73.17;;;27.53;;
19339;SDS011;9804;52.350;6.684;2022-12-10T03:19:42;77.47;;;28.13;;
19339;SDS011;9804;52.350;6.684;2022-12-10T03:22:12;74.43;;;29.23;;
19339;SDS011;9804;52.350;6.684;2022-12-10T03:24:41;82.10;;;30.23;;
19339;SDS011;9804;52.350;6.684;2022-12-10T03:27:08;82.07;;;29.70;;
19339;SDS011;9804;52.350;6.684;2022-12-10T03:29:41;84.50;;;30.53;;
19339;SDS011;9804;52.350;6.684;2022-12-10T03:32:11;79.03;;;29.43;;
19339;SDS011;9804;52.350;6.684;2022-12-10T03:34:39;91.37;;;30.00;;
19339;SDS011;9804;52.350;6.684;2022-12-10T03:37:05;81.37;;;29.27;;
19339;SDS011;9804;52.350;6.684;2022-12-10T03:39:31;88.63;;;29.00;;
19339;SDS011;9804;52.350;6.684;2022-12-10T03:41:57;93.20;;;30.97;;
19339;SDS011;9804;52.350;6.684;2022-12-10T03:44:32;85.17;;;30.57;;
19339;SDS011;9804;52.350;6.684;2022-12-10T03:47:00;87.80;;;30.20;;
19339;SDS011;9804;52.350;6.684;2022-12-10T03:49:26;88.00;;;29.00;;
19339;SDS011;9804;52.350;6.684;2022-12-10T03:51:52;77.00;;;28.23;;
19339;SDS011;9804;52.350;6.684;2022-12-10T03:54:17;87.30;;;27.07;;
19339;SDS011;9804;52.350;6.684;2022-12-10T03:56:43;90.57;;;29.50;;
19339;SDS011;9804;52.350;6.684;2022-12-10T03:59:08;85.00;;;29.00;;
19339;SDS011;9804;52.350;6.684;2022-12-10T04:01:33;91.70;;;29.97;;
19339;SDS011;9804;52.350;6.684;2022-12-10T04:03:59;87.43;;;28.37;;
19339;SDS011;9804;52.350;6.684;2022-12-10T04:06:24;82.00;;;27.00;;
19339;SDS011;9804;52.350;6.684;2022-12-10T04:08:49;87.20;;;27.70;;
19339;SDS011;9804;52.350;6.684;2022-12-10T04:11:17;83.93;;;28.10;;
19339;SDS011;9804;52.350;6.684;2022-12-10T04:13:43;89.30;;;27.60;;
19339;SDS011;9804;52.350;6.684;2022-12-10T04:16:27;82.10;;;26.50;;
19339;SDS011;9804;52.350;6.684;2022-12-10T04:18:58;85.90;;;28.17;;
19339;SDS011;9804;52.350;6.684;2022-12-10T04:21:25;81.60;;;29.17;;
19339;SDS011;9804;52.350;6.684;2022-12-10T04:24:10;84.47;;;26.33;;
19339;SDS011;9804;52.350;6.684;2022-12-10T04:26:55;89.17;;;28.93;;
19339;SDS011;9804;52.350;6.684;2022-12-10T04:29:23;86.13;;;26.70;;
19339;SDS011;9804;52.350;6.684;2022-12-10T04:31:50;88.30;;;28.23;;
19339;SDS011;9804;52.350;6.684;2022-12-10T04:34:16;94.70;;;29.10;;
19339;SDS011;9804;52.350;6.684;2022-12-10T04:36:42;85.67;;;28.30;;
19339;SDS011;9804;52.350;6.684;2022-12-10T04:39:07;88.17;;;28.13;;
19339;SDS011;9804;52.350;6.684;2022-12-10T04:41:33;86.27;;;28.13;;
19339;SDS011;9804;52.350;6.684;2022-12-10T04:43:58;92.83;;;29.27;;
19339;SDS011;9804;52.350;6.684;2022-12-10T04:46:23;91.67;;;28.57;;
19339;SDS011;9804;52.350;6.684;2022-12-10T04:48:49;81.23;;;27.87;;
19339;SDS011;9804;52.350;6.684;2022-12-10T04:51:14;88.10;;;28.20;;
19339;SDS011;9804;52.350;6.684;2022-12-10T04:53:39;92.23;;;28.83;;
19339;SDS011;9804;52.350;6.684;2022-12-10T04:56:05;71.53;;;26.73;;
19339;SDS011;9804;52.350;6.684;2022-12-10T04:58:31;89.07;;;27.07;;
19339;SDS011;9804;52.350;6.684;2022-12-10T05:01:04;94.70;;;28.97;;
19339;SDS011;9804;52.350;6.684;2022-12-10T05:03:31;84.43;;;26.97;;
19339;SDS011;9804;52.350;6.684;2022-12-10T05:06:01;82.83;;;28.83;;
19339;SDS011;9804;52.350;6.684;2022-12-10T05:08:31;87.77;;;27.57;;
19339;SDS011;9804;52.350;6.684;2022-12-10T05:11:00;97.30;;;28.83;;
19339;SDS011;9804;52.350;6.684;2022-12-10T05:13:27;91.13;;;28.07;;
19339;SDS011;9804;52.350;6.684;2022-12-10T05:15:52;100.77;;;28.87;;
19339;SDS011;9804;52.350;6.684;2022-12-10T05:18:18;99.60;;;29.07;;
19339;SDS011;9804;52.350;6.684;2022-12-10T05:20:43;89.53;;;28.47;;
19339;SDS011;9804;52.350;6.684;2022-12-10T05:23:08;106.57;;;32.03;;
19339;SDS011;9804;52.350;6.684;2022-12-10T05:26:09;105.80;;;30.07;;
19339;SDS011;9804;52.350;6.684;2022-12-10T05:28:41;99.07;;;28.83;;
19339;SDS011;9804;52.350;6.684;2022-12-10T05:31:15;112.80;;;31.27;;
19339;SDS011;9804;52.350;6.684;2022-12-10T05:33:42;94.17;;;28.23;;
19339;SDS011;9804;52.350;6.684;2022-12-10T05:36:09;104.07;;;31.23;;
19339;SDS011;9804;52.350;6.684;2022-12-10T05:38:36;88.83;;;29.10;;
19339;SDS011;9804;52.350;6.684;2022-12-10T05:41:03;103.23;;;30.83;;
19339;SDS011;9804;52.350;6.684;2022-12-10T05:43:33;91.93;;;29.20;;
19339;SDS011;9804;52.350;6.684;2022-12-10T05:45:59;101.07;;;30.33;;
19339;SDS011;9804;52.350;6.684;2022-12-10T05:48:25;102.47;;;31.03;;
19339;SDS011;9804;52.350;6.684;2022-12-10T05:50:51;100.60;;;29.30;;
19339;SDS011;9804;52.350;6.684;2022-12-10T05:53:16;105.77;;;32.00;;
19339;SDS011;9804;52.350;6.684;2022-12-10T05:55:43;95.60;;;29.90;;
19339;SDS011;9804;52.350;6.684;2022-12-10T05:58:08;103.30;;;31.13;;
19339;SDS011;9804;52.350;6.684;2022-12-10T06:00:33;108.23;;;30.73;;
19339;SDS011;9804;52.350;6.684;2022-12-10T06:02:59;104.73;;;31.90;;
19339;SDS011;9804;52.350;6.684;2022-12-10T06:05:24;107.67;;;31.80;;
19339;SDS011;9804;52.350;6.684;2022-12-10T06:07:50;100.73;;;30.37;;
19339;SDS011;9804;52.350;6.684;2022-12-10T06:10:15;104.43;;;30.37;;
19339;SDS011;9804;52.350;6.684;2022-12-10T06:12:40;95.40;;;29.20;;
19339;SDS011;9804;52.350;6.684;2022-12-10T06:15:06;99.40;;;28.93;;
19339;SDS011;9804;52.350;6.684;2022-12-10T06:17:31;111.40;;;32.97;;
19339;SDS011;9804;52.350;6.684;2022-12-10T06:19:57;101.57;;;29.67;;
19339;SDS011;9804;52.350;6.684;2022-12-10T06:22:22;113.03;;;31.33;;
19339;SDS011;9804;52.350;6.684;2022-12-10T06:24:48;103.00;;;29.90;;
19339;SDS011;9804;52.350;6.684;2022-12-10T06:27:13;106.37;;;31.27;;
19339;SDS011;9804;52.350;6.684;2022-12-10T06:29:39;113.63;;;32.37;;
19339;SDS011;9804;52.350;6.684;2022-12-10T06:32:05;108.53;;;31.87;;
19339;SDS011;9804;52.350;6.684;2022-12-10T06:34:30;102.83;;;31.73;;
19339;SDS011;9804;52.350;6.684;2022-12-10T06:36:56;103.37;;;31.37;;
19339;SDS011;9804;52.350;6.684;2022-12-10T06:39:21;115.33;;;30.30;;
19339;SDS011;9804;52.350;6.684;2022-12-10T06:41:46;117.00;;;32.43;;
19339;SDS011;9804;52.350;6.684;2022-12-10T06:44:12;114.37;;;29.93;;
19339;SDS011;9804;52.350;6.684;2022-12-10T06:46:39;115.67;;;31.90;;
19339;SDS011;9804;52.350;6.684;2022-12-10T06:49:05;119.90;;;32.47;;
19339;SDS011;9804;52.350;6.684;2022-12-10T06:51:31;105.07;;;29.83;;
19339;SDS011;9804;52.350;6.684;2022-12-10T06:53:57;110.23;;;33.10;;
19339;SDS011;9804;52.350;6.684;2022-12-10T06:56:22;107.20;;;29.80;;
19339;SDS011;9804;52.350;6.684;2022-12-10T06:58:47;113.13;;;32.90;;
19339;SDS011;9804;52.350;6.684;2022-12-10T07:01:14;109.03;;;30.53;;
19339;SDS011;9804;52.350;6.684;2022-12-10T07:03:41;116.73;;;32.27;;
19339;SDS011;9804;52.350;6.684;2022-12-10T07:06:07;111.10;;;32.83;;
19339;SDS011;9804;52.350;6.684;2022-12-10T07:08:34;112.10;;;31.70;;
19339;SDS011;9804;52.350;6.684;2022-12-10T07:11:02;110.97;;;30.70;;
19339;SDS011;9804;52.350;6.684;2022-12-10T07:13:29;105.67;;;31.13;;
19339;SDS011;9804;52.350;6.684;2022-12-10T07:15:54;103.60;;;31.37;;
19339;SDS011;9804;52.350;6.684;2022-12-10T07:18:19;114.40;;;31.87;;
19339;SDS011;9804;52.350;6.684;2022-12-10T07:20:45;118.23;;;32.73;;
19339;SDS011;9804;52.350;6.684;2022-12-10T07:23:10;119.90;;;33.20;;
19339;SDS011;9804;52.350;6.684;2022-12-10T07:25:35;123.07;;;34.03;;
19339;SDS011;9804;52.350;6.684;2022-12-10T07:28:01;123.33;;;32.97;;
19339;SDS011;9804;52.350;6.684;2022-12-10T07:30:26;113.57;;;31.63;;
19339;SDS011;9804;52.350;6.684;2022-12-10T07:32:51;110.87;;;31.13;;
19339;SDS011;9804;52.350;6.684;2022-12-10T07:35:17;101.60;;;30.27;;
19339;SDS011;9804;52.350;6.684;2022-12-10T07:37:42;119.90;;;31.90;;
19339;SDS011;9804;52.350;6.684;2022-12-10T07:40:07;121.43;;;32.57;;
19339;SDS011;9804;52.350;6.684;2022-12-10T07:42:33;128.30;;;35.47;;
19339;SDS011;9804;52.350;6.684;2022-12-10T07:44:59;124.80;;;33.00;;
19339;SDS011;9804;52.350;6.684;2022-12-10T07:47:24;117.33;;;32.43;;
19339;SDS011;9804;52.350;6.684;2022-12-10T07:49:50;131.77;;;34.10;;
19339;SDS011;9804;52.350;6.684;2022-12-10T07:52:15;105.60;;;31.87;;
19339;SDS011;9804;52.350;6.684;2022-12-10T07:54:40;110.07;;;31.07;;
19339;SDS011;9804;52.350;6.684;2022-12-10T07:57:06;119.43;;;34.17;;
19339;SDS011;9804;52.350;6.684;2022-12-10T07:59:31;117.17;;;33.07;;
19339;SDS011;9804;52.350;6.684;2022-12-10T08:01:57;124.57;;;33.77;;
19339;SDS011;9804;52.350;6.684;2022-12-10T08:04:22;114.53;;;32.73;;
19339;SDS011;9804;52.350;6.684;2022-12-10T08:06:47;127.97;;;34.07;;
19339;SDS011;9804;52.350;6.684;2022-12-10T08:09:13;130.87;;;35.50;;
19339;SDS011;9804;52.350;6.684;2022-12-10T08:11:38;125.83;;;35.20;;
19339;SDS011;9804;52.350;6.684;2022-12-10T08:14:04;130.63;;;36.20;;
19339;SDS011;9804;52.350;6.684;2022-12-10T08:16:29;116.07;;;32.83;;
19339;SDS011;9804;52.350;6.684;2022-12-10T08:18:56;110.73;;;31.67;;
19339;SDS011;9804;52.350;6.684;2022-12-10T08:21:24;120.83;;;35.63;;
19339;SDS011;9804;52.350;6.684;2022-12-10T08:23:52;134.10;;;38.20;;
19339;SDS011;9804;52.350;6.684;2022-12-10T08:26:20;127.50;;;38.23;;
19339;SDS011;9804;52.350;6.684;2022-12-10T08:28:49;145.30;;;39.17;;
19339;SDS011;9804;52.350;6.684;2022-12-10T08:31:16;138.70;;;41.20;;
19339;SDS011;9804;52.350;6.684;2022-12-10T08:33:43;130.73;;;39.70;;
19339;SDS011;9804;52.350;6.684;2022-12-10T08:36:10;136.20;;;40.73;;
19339;SDS011;9804;52.350;6.684;2022-12-10T08:38:37;131.93;;;41.07;;
19339;SDS011;9804;52.350;6.684;2022-12-10T08:41:07;125.80;;;40.07;;
19339;SDS011;9804;52.350;6.684;2022-12-10T08:43:43;136.70;;;41.07;;
19339;SDS011;9804;52.350;6.684;2022-12-10T08:46:09;142.57;;;41.37;;
19339;SDS011;9804;52.350;6.684;2022-12-10T08:48:36;133.43;;;39.87;;
19339;SDS011;9804;52.350;6.684;2022-12-10T08:51:02;138.00;;;42.80;;
19339;SDS011;9804;52.350;6.684;2022-12-10T08:53:28;129.83;;;42.53;;
19339;SDS011;9804;52.350;6.684;2022-12-10T08:55:55;129.57;;;40.47;;
19339;SDS011;9804;52.350;6.684;2022-12-10T08:58:20;140.70;;;43.70;;
19339;SDS011;9804;52.350;6.684;2022-12-10T09:00:46;121.73;;;43.50;;
19339;SDS011;9804;52.350;6.684;2022-12-10T09:03:12;135.77;;;45.73;;
19339;SDS011;9804;52.350;6.684;2022-12-10T09:05:38;133.03;;;44.37;;
19339;SDS011;9804;52.350;6.684;2022-12-10T09:08:03;135.57;;;43.67;;
19339;SDS011;9804;52.350;6.684;2022-12-10T09:10:29;124.87;;;44.70;;
19339;SDS011;9804;52.350;6.684;2022-12-10T09:12:54;127.57;;;43.90;;
19339;SDS011;9804;52.350;6.684;2022-12-10T09:15:20;132.20;;;44.80;;
19339;SDS011;9804;52.350;6.684;2022-12-10T09:17:45;132.43;;;45.53;;
19339;SDS011;9804;52.350;6.684;2022-12-10T09:20:10;119.40;;;42.00;;
19339;SDS011;9804;52.350;6.684;2022-12-10T09:22:36;120.07;;;42.43;;
19339;SDS011;9804;52.350;6.684;2022-12-10T09:25:02;130.63;;;45.03;;
19339;SDS011;9804;52.350;6.684;2022-12-10T09:27:29;132.93;;;45.93;;
19339;SDS011;9804;52.350;6.684;2022-12-10T09:29:55;123.23;;;44.10;;
19339;SDS011;9804;52.350;6.684;2022-12-10T09:32:20;125.73;;;44.03;;
19339;SDS011;9804;52.350;6.684;2022-12-10T09:34:45;127.20;;;44.20;;
19339;SDS011;9804;52.350;6.684;2022-12-10T09:37:11;121.00;;;44.67;;
19339;SDS011;9804;52.350;6.684;2022-12-10T09:39:36;128.80;;;45.40;;
19339;SDS011;9804;52.350;6.684;2022-12-10T09:42:06;130.03;;;43.90;;
19339;SDS011;9804;52.350;6.684;2022-12-10T09:47:40;114.10;;;41.10;;
19339;SDS011;9804;52.350;6.684;2022-12-10T09:50:44;123.30;;;40.63;;
19339;SDS011;9804;52.350;6.684;2022-12-10T09:53:13;113.03;;;41.90;;
19339;SDS011;9804;52.350;6.684;2022-12-10T09:55:43;121.27;;;43.00;;
19339;SDS011;9804;52.350;6.684;2022-12-10T09:58:17;129.23;;;43.77;;
19339;SDS011;9804;52.350;6.684;2022-12-10T10:00:46;120.03;;;43.20;;
19339;SDS011;9804;52.350;6.684;2022-12-10T10:03:15;115.90;;;41.03;;
19339;SDS011;9804;52.350;6.684;2022-12-10T10:05:42;122.70;;;41.90;;
19339;SDS011;9804;52.350;6.684;2022-12-10T10:10:58;109.93;;;40.67;;
19339;SDS011;9804;52.350;6.684;2022-12-10T10:13:32;99.67;;;39.23;;
19339;SDS011;9804;52.350;6.684;2022-12-10T10:16:19;102.77;;;39.00;;
19339;SDS011;9804;52.350;6.684;2022-12-10T10:19:04;99.77;;;35.97;;
19339;SDS011;9804;52.350;6.684;2022-12-10T10:21:36;104.23;;;36.17;;
19339;SDS011;9804;52.350;6.684;2022-12-10T10:24:04;95.57;;;36.03;;
19339;SDS011;9804;52.350;6.684;2022-12-10T10:26:31;98.67;;;36.10;;
19339;SDS011;9804;52.350;6.684;2022-12-10T10:29:01;98.00;;;35.73;;
19339;SDS011;9804;52.350;6.684;2022-12-10T10:31:31;98.53;;;34.90;;
19339;SDS011;9804;52.350;6.684;2022-12-10T10:33:59;101.23;;;36.47;;
19339;SDS011;9804;52.350;6.684;2022-12-10T10:36:33;97.93;;;38.37;;
19339;SDS011;9804;52.350;6.684;2022-12-10T10:39:23;101.57;;;36.90;;
19339;SDS011;9804;52.350;6.684;2022-12-10T10:41:53;95.13;;;35.03;;
19339;SDS011;9804;52.350;6.684;2022-12-10T10:44:21;93.67;;;35.40;;
19339;SDS011;9804;52.350;6.684;2022-12-10T10:46:50;102.50;;;36.57;;
19339;SDS011;9804;52.350;6.684;2022-12-10T10:49:21;91.10;;;34.53;;
19339;SDS011;9804;52.350;6.684;2022-12-10T10:51:48;103.33;;;36.23;;
19339;SDS011;9804;52.350;6.684;2022-12-10T10:54:33;99.67;;;36.80;;
19339;SDS011;9804;52.350;6.684;2022-12-10T10:57:25;97.23;;;34.13;;
19339;SDS011;9804;52.350;6.684;2022-12-10T11:00:05;91.67;;;31.97;;
19339;SDS011;9804;52.350;6.684;2022-12-10T11:02:42;95.17;;;33.93;;
19339;SDS011;9804;52.350;6.684;2022-12-10T11:05:14;91.83;;;34.67;;
19339;SDS011;9804;52.350;6.684;2022-12-10T11:07:42;104.97;;;35.73;;
19339;SDS011;9804;52.350;6.684;2022-12-10T11:10:21;94.10;;;34.57;;
19339;SDS011;9804;52.350;6.684;2022-12-10T11:15:31;94.00;;;35.10;;
19339;SDS011;9804;52.350;6.684;2022-12-10T11:18:02;98.97;;;35.83;;
19339;SDS011;9804;52.350;6.684;2022-12-10T11:20:45;90.90;;;34.60;;
19339;SDS011;9804;52.350;6.684;2022-12-10T11:23:47;89.37;;;34.63;;
19339;SDS011;9804;52.350;6.684;2022-12-10T11:34:56;82.83;;;32.53;;
19339;SDS011;9804;52.350;6.684;2022-12-10T11:37:39;78.50;;;29.07;;
19339;SDS011;9804;52.350;6.684;2022-12-10T11:40:26;101.83;;;38.33;;
19339;SDS011;9804;52.350;6.684;2022-12-10T11:51:50;90.70;;;32.37;;
19339;SDS011;9804;52.350;6.684;2022-12-10T11:59:58;84.17;;;33.10;;
19339;SDS011;9804;52.350;6.684;2022-12-10T12:13:05;83.23;;;31.00;;
19339;SDS011;9804;52.350;6.684;2022-12-10T12:15:37;70.70;;;28.57;;
19339;SDS011;9804;52.350;6.684;2022-12-10T12:21:07;75.33;;;29.23;;
19339;SDS011;9804;52.350;6.684;2022-12-10T12:23:37;74.53;;;30.03;;
19339;SDS011;9804;52.350;6.684;2022-12-10T12:32:46;71.10;;;28.10;;
19339;SDS011;9804;52.350;6.684;2022-12-10T12:37:21;74.23;;;30.17;;
19339;SDS011;9804;52.350;6.684;2022-12-10T12:40:03;80.90;;;29.77;;
19339;SDS011;9804;52.350;6.684;2022-12-10T12:50:36;76.47;;;30.30;;
19339;SDS011;9804;52.350;6.684;2022-12-10T12:53:07;75.10;;;29.13;;
19339;SDS011;9804;52.350;6.684;2022-12-10T12:55:42;76.57;;;28.77;;
19339;SDS011;9804;52.350;6.684;2022-12-10T13:00:54;76.43;;;30.20;;
19339;SDS011;9804;52.350;6.684;2022-12-10T13:03:41;79.83;;;29.53;;
19339;SDS011;9804;52.350;6.684;2022-12-10T13:06:17;71.73;;;28.47;;
19339;SDS011;9804;52.350;6.684;2022-12-10T13:09:32;77.50;;;29.13;;
19339;SDS011;9804;52.350;6.684;2022-12-10T13:11:39;76.23;;;29.23;;
19339;SDS011;9804;52.350;6.684;2022-12-10T13:24:17;74.53;;;29.80;;
19339;SDS011;9804;52.350;6.684;2022-12-10T13:29:29;75.97;;;27.20;;
19339;SDS011;9804;52.350;6.684;2022-12-10T13:32:13;79.57;;;30.73;;
19339;SDS011;9804;52.350;6.684;2022-12-10T13:34:39;79.63;;;29.83;;
19339;SDS011;9804;52.350;6.684;2022-12-10T13:37:06;77.33;;;28.90;;
19339;SDS011;9804;52.350;6.684;2022-12-10T13:39:48;73.63;;;30.27;;
19339;SDS011;9804;52.350;6.684;2022-12-10T13:42:22;74.63;;;28.50;;
19339;SDS011;9804;52.350;6.684;2022-12-10T13:47:48;75.73;;;27.80;;
19339;SDS011;9804;52.350;6.684;2022-12-10T13:58:45;77.23;;;28.07;;
19339;SDS011;9804;52.350;6.684;2022-12-10T14:01:33;81.93;;;29.53;;
19339;SDS011;9804;52.350;6.684;2022-12-10T14:06:56;81.40;;;28.93;;
19339;SDS011;9804;52.350;6.684;2022-12-10T14:09:23;77.60;;;28.97;;
19339;SDS011;9804;52.350;6.684;2022-12-10T14:12:16;84.07;;;29.00;;
19339;SDS011;9804;52.350;6.684;2022-12-10T14:14:47;84.07;;;30.87;;
19339;SDS011;9804;52.350;6.684;2022-12-10T14:17:33;79.63;;;27.73;;
19339;SDS011;9804;52.350;6.684;2022-12-10T14:20:03;84.53;;;29.17;;
19339;SDS011;9804;52.350;6.684;2022-12-10T14:22:38;84.80;;;29.83;;
19339;SDS011;9804;52.350;6.684;2022-12-10T14:25:13;77.87;;;28.20;;
19339;SDS011;9804;52.350;6.684;2022-12-10T14:27:41;80.87;;;28.80;;
19339;SDS011;9804;52.350;6.684;2022-12-10T14:32:45;73.10;;;27.90;;
19339;SDS011;9804;52.350;6.684;2022-12-10T14:35:19;76.87;;;27.97;;
19339;SDS011;9804;52.350;6.684;2022-12-10T14:37:47;74.13;;;28.03;;
19339;SDS011;9804;52.350;6.684;2022-12-10T14:40:19;94.10;;;31.90;;
19339;SDS011;9804;52.350;6.684;2022-12-10T14:42:49;81.73;;;28.13;;
19339;SDS011;9804;52.350;6.684;2022-12-10T14:45:17;77.37;;;28.83;;
19339;SDS011;9804;52.350;6.684;2022-12-10T14:47:43;82.87;;;29.70;;
19339;SDS011;9804;52.350;6.684;2022-12-10T14:50:13;80.57;;;28.57;;
19339;SDS011;9804;52.350;6.684;2022-12-10T14:52:41;84.00;;;29.90;;
19339;SDS011;9804;52.350;6.684;2022-12-10T14:55:12;83.70;;;29.10;;
19339;SDS011;9804;52.350;6.684;2022-12-10T14:57:40;86.80;;;28.50;;
19339;SDS011;9804;52.350;6.684;2022-12-10T15:00:15;83.63;;;27.57;;
19339;SDS011;9804;52.350;6.684;2022-12-10T15:02:53;79.17;;;27.83;;
19339;SDS011;9804;52.350;6.684;2022-12-10T15:05:23;86.00;;;27.67;;
19339;SDS011;9804;52.350;6.684;2022-12-10T15:07:53;80.97;;;27.73;;
19339;SDS011;9804;52.350;6.684;2022-12-10T15:10:23;80.13;;;28.73;;
19339;SDS011;9804;52.350;6.684;2022-12-10T15:13:00;86.83;;;29.07;;
19339;SDS011;9804;52.350;6.684;2022-12-10T15:15:30;78.70;;;28.37;;
19339;SDS011;9804;52.350;6.684;2022-12-10T15:17:59;90.03;;;29.97;;
19339;SDS011;9804;52.350;6.684;2022-12-10T15:20:32;76.13;;;28.30;;
19339;SDS011;9804;52.350;6.684;2022-12-10T15:25:48;79.00;;;27.27;;
19339;SDS011;9804;52.350;6.684;2022-12-10T15:28:30;76.50;;;27.13;;
19339;SDS011;9804;52.350;6.684;2022-12-10T15:31:13;81.53;;;25.97;;
19339;SDS011;9804;52.350;6.684;2022-12-10T15:33:40;82.70;;;29.73;;
19339;SDS011;9804;52.350;6.684;2022-12-10T15:36:19;80.30;;;27.30;;
19339;SDS011;9804;52.350;6.684;2022-12-10T15:38:45;99.87;;;31.70;;
19339;SDS011;9804;52.350;6.684;2022-12-10T15:46:52;79.80;;;26.63;;
19339;SDS011;9804;52.350;6.684;2022-12-10T15:49:27;85.97;;;28.93;;
19339;SDS011;9804;52.350;6.684;2022-12-10T15:51:53;82.87;;;27.27;;
19339;SDS011;9804;52.350;6.684;2022-12-10T15:54:22;90.83;;;29.43;;
19339;SDS011;9804;52.350;6.684;2022-12-10T15:56:53;95.50;;;31.13;;
19339;SDS011;9804;52.350;6.684;2022-12-10T15:59:18;98.73;;;31.63;;
19339;SDS011;9804;52.350;6.684;2022-12-10T16:01:44;90.83;;;30.40;;
19339;SDS011;9804;52.350;6.684;2022-12-10T16:04:10;101.87;;;32.17;;
19339;SDS011;9804;52.350;6.684;2022-12-10T16:06:36;95.97;;;30.20;;
19339;SDS011;9804;52.350;6.684;2022-12-10T16:09:01;92.03;;;30.93;;
19339;SDS011;9804;52.350;6.684;2022-12-10T16:11:26;94.23;;;30.73;;
19339;SDS011;9804;52.350;6.684;2022-12-10T16:13:53;95.83;;;30.50;;
19339;SDS011;9804;52.350;6.684;2022-12-10T16:16:22;95.70;;;30.90;;
19339;SDS011;9804;52.350;6.684;2022-12-10T16:18:48;98.63;;;32.77;;
19339;SDS011;9804;52.350;6.684;2022-12-10T16:21:13;90.50;;;30.17;;
19339;SDS011;9804;52.350;6.684;2022-12-10T16:23:38;100.43;;;30.47;;
19339;SDS011;9804;52.350;6.684;2022-12-10T16:26:14;96.90;;;32.53;;
19339;SDS011;9804;52.350;6.684;2022-12-10T16:28:42;105.20;;;31.97;;
19339;SDS011;9804;52.350;6.684;2022-12-10T16:31:09;100.67;;;31.73;;
19339;SDS011;9804;52.350;6.684;2022-12-10T16:33:37;94.17;;;32.30;;
19339;SDS011;9804;52.350;6.684;2022-12-10T16:36:02;102.73;;;30.10;;
19339;SDS011;9804;52.350;6.684;2022-12-10T16:38:27;91.20;;;29.10;;